createdAt,value
2019-03-16T00:01:21.442Z,29.33
2019-03-16T00:03:51.591Z,23.77
2019-03-16T00:06:21.784Z,36.93
2019-03-16T00:08:51.926Z,29.90
2019-03-16T00:11:22.106Z,38.57
2019-03-16T00:13:52.338Z,34.90
2019-03-16T00:16:22.564Z,39.77
2019-03-16T00:18:53.629Z,42.83
2019-03-16T00:21:24.244Z,50.25
2019-03-16T00:23:54.463Z,36.07
2019-03-16T00:26:25.560Z,42.53
2019-03-16T00:28:55.849Z,36.53
2019-03-16T00:31:26.002Z,35.43
2019-03-16T00:33:56.983Z,42.60
2019-03-16T00:36:27.180Z,57.65
2019-03-16T00:38:57.338Z,34.27
2019-03-16T00:41:28.388Z,38.02
2019-03-16T00:43:58.556Z,37.93
2019-03-16T00:46:29.699Z,36.95
2019-03-16T00:48:59.856Z,35.10
2019-03-16T00:51:30.869Z,35.00
2019-03-16T00:54:01.036Z,49.70
2019-03-16T00:56:31.323Z,41.47
2019-03-16T00:59:02.250Z,39.13
2019-03-16T01:01:55.389Z,38.73
2019-03-16T01:04:51.132Z,41.03
2019-03-16T01:07:49.010Z,57.27
2019-03-16T01:10:45.428Z,40.57
2019-03-16T01:13:41.079Z,49.57
2019-03-16T01:16:37.834Z,37.47
2019-03-16T01:19:34.590Z,40.67
2019-03-16T01:22:30.687Z,46.77
2019-03-16T01:25:26.045Z,41.17
2019-03-16T01:28:23.506Z,48.57
2019-03-16T01:31:18.870Z,51.83
2019-03-16T01:34:16.442Z,39.10
2019-03-16T01:37:13.016Z,45.67
2019-03-16T01:40:08.552Z,38.90
2019-03-16T01:43:06.288Z,47.62
2019-03-16T01:46:02.063Z,41.53
2019-03-16T01:48:58.218Z,42.57
2019-03-16T01:51:54.750Z,41.43
2019-03-16T01:54:51.052Z,44.80
2019-03-16T01:57:47.006Z,52.23
2019-03-16T02:00:43.781Z,38.53
2019-03-16T02:03:39.320Z,43.27
2019-03-16T02:06:35.916Z,41.63
2019-03-16T02:09:33.426Z,48.50
2019-03-16T02:12:28.849Z,40.37
2019-03-16T02:15:25.812Z,46.83
2019-03-16T02:18:21.485Z,45.57
2019-03-16T02:21:17.333Z,38.87
2019-03-16T02:24:13.072Z,37.43
2019-03-16T02:27:09.635Z,46.87
2019-03-16T02:30:06.326Z,39.83
2019-03-16T02:33:12.767Z,44.97
2019-03-16T02:36:00.700Z,50.63
2019-03-16T02:38:57.254Z,44.00
2019-03-16T02:41:53.773Z,33.87
2019-03-16T02:44:49.387Z,43.13
2019-03-16T02:47:45.951Z,46.63
2019-03-16T02:50:43.791Z,36.23
2019-03-16T02:53:40.379Z,42.80
2019-03-16T02:56:37.131Z,45.73
2019-03-16T02:59:34.869Z,38.42
2019-03-16T03:02:31.444Z,39.60
2019-03-16T03:05:26.842Z,39.30
2019-03-16T03:11:14.029Z,38.75
2019-03-16T03:14:10.488Z,45.27
2019-03-16T03:17:05.921Z,38.70
2019-03-16T03:20:03.405Z,39.33
2019-03-16T03:22:59.976Z,38.03
2019-03-16T03:25:55.490Z,41.83
2019-03-16T03:28:51.147Z,40.40
2019-03-16T03:31:46.961Z,39.30
2019-03-16T03:34:44.504Z,33.30
2019-03-16T03:37:43.085Z,36.23
2019-03-16T03:40:39.851Z,36.20
2019-03-16T03:43:36.554Z,36.23
2019-03-16T03:46:33.130Z,44.50
2019-03-16T03:49:29.535Z,38.90
2019-03-16T03:52:26.318Z,38.50
2019-03-16T03:55:23.967Z,37.93
2019-03-16T03:58:20.343Z,54.45
2019-03-16T04:01:17.674Z,40.20
2019-03-16T04:04:15.728Z,38.27
2019-03-16T04:07:09.794Z,41.73
2019-03-16T04:10:04.755Z,36.70
2019-03-16T04:13:01.196Z,35.60
2019-03-16T04:15:56.989Z,43.87
2019-03-16T04:18:52.175Z,54.70
2019-03-16T04:21:49.770Z,44.07
2019-03-16T04:24:45.726Z,44.30
2019-03-16T04:27:41.832Z,34.30
2019-03-16T04:30:38.363Z,37.00
2019-03-16T04:33:36.173Z,44.77
2019-03-16T04:36:31.616Z,40.63
2019-03-16T04:39:29.096Z,42.07
2019-03-16T04:42:25.518Z,42.20
2019-03-16T04:45:22.428Z,32.28
2019-03-16T04:48:20.238Z,41.73
2019-03-16T04:51:17.014Z,40.13
2019-03-16T04:54:13.601Z,41.67
2019-03-16T04:57:10.356Z,39.90
2019-03-16T05:00:07.142Z,39.80
2019-03-16T05:03:02.731Z,44.13
2019-03-16T05:05:59.364Z,41.10
2019-03-16T05:08:56.106Z,39.93
2019-03-16T05:11:53.888Z,40.73
2019-03-16T05:14:49.828Z,45.70
2019-03-16T05:17:45.544Z,38.23
2019-03-16T05:20:42.200Z,39.93
2019-03-16T05:23:37.660Z,46.97
2019-03-16T05:26:34.196Z,50.90
2019-03-16T05:29:29.899Z,41.20
2019-03-16T05:32:28.425Z,38.10
2019-03-16T05:35:24.118Z,38.37
2019-03-16T05:38:19.993Z,41.50
2019-03-16T05:41:16.713Z,42.17
2019-03-16T05:44:12.297Z,37.00
2019-03-16T05:47:08.844Z,38.97
2019-03-16T05:50:04.566Z,44.27
2019-03-16T05:53:00.998Z,40.77
2019-03-16T05:55:57.838Z,44.30
2019-03-16T05:58:55.327Z,43.37
2019-03-16T06:01:51.239Z,46.50
2019-03-16T06:04:47.723Z,49.67
2019-03-16T06:07:44.593Z,47.27
2019-03-16T06:10:40.242Z,42.97
2019-03-16T06:13:37.265Z,39.90
2019-03-16T06:16:32.612Z,41.43
2019-03-16T06:19:29.094Z,46.77
2019-03-16T06:22:25.003Z,43.70
2019-03-16T06:25:21.371Z,47.80
2019-03-16T06:28:18.237Z,40.10
2019-03-16T06:31:13.819Z,40.73
2019-03-16T06:34:11.592Z,41.63
2019-03-16T06:37:06.398Z,40.97
2019-03-16T06:40:03.141Z,42.40
2019-03-16T06:42:59.823Z,53.50
2019-03-16T06:45:55.963Z,37.27
2019-03-16T06:48:51.092Z,51.10
2019-03-16T06:51:47.987Z,44.77
2019-03-16T06:54:44.695Z,63.17
2019-03-16T06:57:41.400Z,47.05
2019-03-16T07:00:39.264Z,46.20
2019-03-16T07:03:35.872Z,46.47
2019-03-16T07:06:31.527Z,40.83
2019-03-16T07:09:26.115Z,45.23
2019-03-16T07:12:23.313Z,47.40
2019-03-16T07:15:18.856Z,52.10
2019-03-16T07:18:15.709Z,45.53
2019-03-16T07:21:13.607Z,51.70
2019-03-16T07:24:10.393Z,46.90
2019-03-16T07:27:07.183Z,49.50
2019-03-16T07:30:02.649Z,51.60
2019-03-16T07:33:00.739Z,43.07
2019-03-16T07:35:57.058Z,53.70
2019-03-16T07:38:53.596Z,50.20
2019-03-16T07:41:49.035Z,51.80
2019-03-16T07:44:46.597Z,47.63
2019-03-16T07:47:42.432Z,48.20
2019-03-16T07:50:39.023Z,56.30
2019-03-16T07:53:34.686Z,52.10
2019-03-16T07:56:29.258Z,50.33
2019-03-16T07:59:26.010Z,50.50
2019-03-16T08:02:21.816Z,55.20
2019-03-16T08:05:19.436Z,54.93
2019-03-16T08:08:15.415Z,56.20
2019-03-16T08:11:11.050Z,50.40
2019-03-16T08:14:08.670Z,59.53
2019-03-16T08:17:04.142Z,56.00
2019-03-16T08:20:00.860Z,53.67
2019-03-16T08:22:56.638Z,56.77
2019-03-16T08:25:53.205Z,57.90
2019-03-16T08:28:49.065Z,56.27
2019-03-16T08:31:45.662Z,55.83
2019-03-16T08:34:43.507Z,61.83
2019-03-16T08:37:39.281Z,56.67
2019-03-16T08:40:35.407Z,58.23
2019-03-16T08:43:31.015Z,58.87
2019-03-16T08:46:26.776Z,56.17
2019-03-16T08:49:22.608Z,60.50
2019-03-16T08:52:19.150Z,56.53
2019-03-16T08:55:17.203Z,59.03
2019-03-16T08:58:15.188Z,57.17
2019-03-16T09:01:11.799Z,60.58
2019-03-16T09:04:09.139Z,97.33
2019-03-16T09:07:05.798Z,58.67
2019-03-16T09:10:01.396Z,61.57
2019-03-16T09:12:57.568Z,57.70
2019-03-16T09:15:55.339Z,69.00
2019-03-16T09:18:50.848Z,61.60
2019-03-16T09:21:47.211Z,58.80
2019-03-16T09:24:44.993Z,60.90
2019-03-16T09:27:41.166Z,55.50
2019-03-16T09:30:36.825Z,58.70
2019-03-16T09:33:33.360Z,58.57
2019-03-16T09:36:27.972Z,57.70
2019-03-16T09:39:24.575Z,58.13
2019-03-16T09:42:21.416Z,55.37
2019-03-16T09:45:18.059Z,58.53
2019-03-16T09:48:14.764Z,58.60
2019-03-16T09:51:10.235Z,55.87
2019-03-16T09:54:06.779Z,62.10
2019-03-16T09:57:01.957Z,58.03
2019-03-16T09:59:58.237Z,57.73
2019-03-16T10:02:54.781Z,61.03
2019-03-16T10:05:52.603Z,65.93
2019-03-16T10:08:49.346Z,63.17
2019-03-16T10:11:44.900Z,57.83
2019-03-16T10:14:41.423Z,57.67
2019-03-16T10:17:37.043Z,56.63
2019-03-16T10:20:33.550Z,60.00
2019-03-16T10:23:30.235Z,57.07
2019-03-16T10:26:28.034Z,56.03
2019-03-16T10:29:25.532Z,63.00
2019-03-16T10:32:21.281Z,56.13
2019-03-16T10:35:17.955Z,59.70
2019-03-16T10:38:15.388Z,58.00
2019-03-16T10:41:11.769Z,61.27
2019-03-16T10:44:07.485Z,58.20
2019-03-16T10:47:04.743Z,62.27
2019-03-16T10:50:01.152Z,62.23
2019-03-16T10:52:56.771Z,59.20
2019-03-16T10:55:54.315Z,61.07
2019-03-16T10:58:56.500Z,59.17
2019-03-16T11:01:46.764Z,60.80
2019-03-16T11:04:43.045Z,60.97
2019-03-16T11:07:40.819Z,60.40
2019-03-16T11:10:35.669Z,60.87
2019-03-16T11:13:31.754Z,61.97
2019-03-16T11:16:28.269Z,60.53
2019-03-16T11:19:24.016Z,60.70
2019-03-16T11:22:20.809Z,62.97
2019-03-16T11:25:17.286Z,61.43
2019-03-16T11:28:14.034Z,60.60
2019-03-16T11:31:09.696Z,70.07
2019-03-16T11:34:05.816Z,60.30
2019-03-16T11:37:01.899Z,64.47
2019-03-16T11:39:58.090Z,62.17
2019-03-16T11:42:53.637Z,62.40
2019-03-16T11:45:50.451Z,68.70
2019-03-16T11:48:47.033Z,62.10
2019-03-16T11:51:43.772Z,63.77
2019-03-16T11:54:39.753Z,63.13
2019-03-16T11:57:36.003Z,61.27
2019-03-16T12:00:32.035Z,61.60
2019-03-16T12:03:27.821Z,63.60
2019-03-16T12:06:24.331Z,64.63
2019-03-16T12:09:22.326Z,60.60
2019-03-16T12:12:18.904Z,62.40
2019-03-16T12:15:14.360Z,62.30
2019-03-16T12:18:12.023Z,68.83
2019-03-16T12:21:09.849Z,63.50
2019-03-16T12:24:05.510Z,62.17
2019-03-16T12:27:02.903Z,63.53
2019-03-16T12:29:58.331Z,62.80
2019-03-16T12:32:54.892Z,62.40
2019-03-16T12:35:52.587Z,63.90
2019-03-16T12:38:49.173Z,65.00
2019-03-16T12:41:45.775Z,64.72
2019-03-16T12:44:41.195Z,65.43
2019-03-16T12:47:38.499Z,67.07
2019-03-16T12:50:34.280Z,63.73
2019-03-16T12:53:30.900Z,64.57
2019-03-16T12:56:26.289Z,64.40
2019-03-16T12:59:22.384Z,65.20
2019-03-16T13:02:18.973Z,64.13
2019-03-16T13:05:14.443Z,64.70
2019-03-16T13:08:10.997Z,63.33
2019-03-16T13:11:07.563Z,66.67
2019-03-16T13:14:03.282Z,64.37
2019-03-16T13:16:59.139Z,65.00
2019-03-16T13:19:55.851Z,65.77
2019-03-16T13:22:51.554Z,66.27
2019-03-16T13:25:49.288Z,69.30
2019-03-16T13:28:46.875Z,66.67
2019-03-16T13:31:42.189Z,67.77
2019-03-16T13:34:38.695Z,66.40
2019-03-16T13:37:33.506Z,67.10
2019-03-16T13:40:30.034Z,65.90
2019-03-16T13:43:25.575Z,68.17
2019-03-16T13:46:23.350Z,68.37
2019-03-16T13:49:20.102Z,67.23
2019-03-16T13:52:16.821Z,67.70
2019-03-16T13:55:13.598Z,67.50
2019-03-16T13:58:09.231Z,68.37
2019-03-16T14:01:05.385Z,66.33
2019-03-16T14:04:03.051Z,66.90
2019-03-16T14:06:57.574Z,67.33
2019-03-16T14:09:53.316Z,68.63
2019-03-16T14:12:49.863Z,70.30
2019-03-16T14:15:46.423Z,66.80
2019-03-16T14:18:43.066Z,67.70
2019-03-16T14:21:39.943Z,66.47
2019-03-16T14:24:35.733Z,66.80
2019-03-16T14:27:32.385Z,68.27
2019-03-16T14:30:40.488Z,67.47
2019-03-16T14:33:24.521Z,70.60
2019-03-16T14:36:21.097Z,67.40
2019-03-16T14:39:17.503Z,70.47
2019-03-16T14:42:14.496Z,68.77
2019-03-16T14:45:09.394Z,68.60
2019-03-16T14:48:05.758Z,68.70
2019-03-16T14:51:05.780Z,68.27
2019-03-16T14:54:03.799Z,69.43
2019-03-16T14:57:02.115Z,69.67
2019-03-16T14:59:59.416Z,70.60
2019-03-16T15:02:54.343Z,70.27
2019-03-16T15:05:50.213Z,75.97
2019-03-16T15:08:46.870Z,72.07
2019-03-16T15:11:43.604Z,70.97
2019-03-16T15:14:39.415Z,70.47
2019-03-16T15:17:36.033Z,72.67
2019-03-16T15:20:33.704Z,70.10
2019-03-16T15:23:30.728Z,71.90
2019-03-16T15:26:26.543Z,73.03
2019-03-16T15:29:23.380Z,70.10
2019-03-16T15:32:20.185Z,71.97
2019-03-16T15:35:16.812Z,69.90
2019-03-16T15:38:12.861Z,70.00
2019-03-16T15:41:09.431Z,71.27
2019-03-16T15:44:07.253Z,70.00
2019-03-16T15:47:03.087Z,72.53
2019-03-16T15:49:59.920Z,71.43
2019-03-16T15:52:55.756Z,70.47
2019-03-16T15:55:52.378Z,71.60
2019-03-16T15:58:48.019Z,70.37
2019-03-16T16:01:45.435Z,70.63
2019-03-16T16:04:42.822Z,70.63
2019-03-16T16:07:38.632Z,70.37
2019-03-16T16:10:36.705Z,69.17
2019-03-16T16:13:32.374Z,69.40
2019-03-16T16:16:30.170Z,68.67
2019-03-16T16:19:25.804Z,68.20
2019-03-16T16:22:22.648Z,70.20
2019-03-16T16:25:18.264Z,68.60
2019-03-16T16:28:15.277Z,70.10
2019-03-16T16:31:16.457Z,68.00
2019-03-16T16:34:09.150Z,66.80
2019-03-16T16:37:07.035Z,68.83
2019-03-16T16:40:02.682Z,67.10
2019-03-16T16:43:01.497Z,65.97
2019-03-16T16:45:57.704Z,76.53
2019-03-16T16:48:58.951Z,66.50
2019-03-16T16:51:52.385Z,66.70
2019-03-16T16:54:49.464Z,66.17
2019-03-16T16:57:45.930Z,66.93
2019-03-16T17:00:42.556Z,65.07
2019-03-16T17:03:42.879Z,63.13
2019-03-16T17:06:39.059Z,65.20
2019-03-16T17:09:35.766Z,63.63
2019-03-16T17:12:31.455Z,61.80
2019-03-16T17:15:28.310Z,63.07
2019-03-16T17:18:25.242Z,69.20
2019-03-16T17:21:21.528Z,65.73
2019-03-16T17:24:17.915Z,63.20
2019-03-16T17:27:13.224Z,60.30
2019-03-16T17:30:12.995Z,61.87
2019-03-16T17:33:06.546Z,62.83
2019-03-16T17:36:03.159Z,60.20
2019-03-16T17:38:58.671Z,66.23
2019-03-16T17:41:56.858Z,65.43
2019-03-16T17:44:52.777Z,62.07
2019-03-16T17:47:51.307Z,66.90
2019-03-16T17:50:47.246Z,62.00
2019-03-16T17:53:46.850Z,60.30
